sensor_id;sensor_type;location;lat;lon;timestamp;P1;durP1;ratioP1;P2;durP2;ratioP2
56481;SDS011;42384;45.186;19.958;2023-03-23T00:01:11;8.13;;;5.30;;
56481;SDS011;42384;45.186;19.958;2023-03-23T00:03:38;9.48;;;5.72;;
56481;SDS011;42384;45.186;19.958;2023-03-23T00:06:04;7.05;;;5.07;;
56481;SDS011;42384;45.186;19.958;2023-03-23T00:08:34;7.93;;;5.55;;
56481;SDS011;42384;45.186;19.958;2023-03-23T00:11:19;7.32;;;5.57;;
56481;SDS011;42384;45.186;19.958;2023-03-23T00:13:46;7.25;;;4.63;;
56481;SDS011;42384;45.186;19.958;2023-03-23T00:16:16;8.48;;;5.53;;
56481;SDS011;42384;45.186;19.958;2023-03-23T00:18:54;7.50;;;5.85;;
56481;SDS011;42384;45.186;19.958;2023-03-23T00:21:22;8.43;;;6.13;;
56481;SDS011;42384;45.186;19.958;2023-03-23T00:23:50;9.02;;;5.63;;
56481;SDS011;42384;45.186;19.958;2023-03-23T00:26:17;7.53;;;5.45;;
56481;SDS011;42384;45.186;19.958;2023-03-23T00:28:43;9.35;;;6.40;;
56481;SDS011;42384;45.186;19.958;2023-03-23T00:31:11;9.38;;;6.20;;
56481;SDS011;42384;45.186;19.958;2023-03-23T00:33:38;9.02;;;6.70;;
56481;SDS011;42384;45.186;19.958;2023-03-23T00:36:09;12.30;;;6.88;;
56481;SDS011;42384;45.186;19.958;2023-03-23T00:38:36;10.77;;;7.10;;
56481;SDS011;42384;45.186;19.958;2023-03-23T00:41:02;10.65;;;7.15;;
56481;SDS011;42384;45.186;19.958;2023-03-23T00:43:29;10.32;;;7.97;;
56481;SDS011;42384;45.186;19.958;2023-03-23T00:45:55;10.63;;;6.90;;
56481;SDS011;42384;45.186;19.958;2023-03-23T00:48:22;12.00;;;7.60;;
56481;SDS011;42384;45.186;19.958;2023-03-23T00:50:49;12.88;;;8.77;;
56481;SDS011;42384;45.186;19.958;2023-03-23T00:55:42;9.95;;;7.28;;
56481;SDS011;42384;45.186;19.958;2023-03-23T00:58:09;10.60;;;8.30;;
56481;SDS011;42384;45.186;19.958;2023-03-23T01:00:36;12.82;;;8.57;;
56481;SDS011;42384;45.186;19.958;2023-03-23T01:03:03;16.55;;;8.15;;
56481;SDS011;42384;45.186;19.958;2023-03-23T01:08:00;12.50;;;8.83;;
56481;SDS011;42384;45.186;19.958;2023-03-23T01:10:27;12.93;;;8.85;;
56481;SDS011;42384;45.186;19.958;2023-03-23T01:12:53;13.05;;;9.07;;
56481;SDS011;42384;45.186;19.958;2023-03-23T01:15:20;14.38;;;9.20;;
56481;SDS011;42384;45.186;19.958;2023-03-23T01:17:47;13.95;;;9.27;;
56481;SDS011;42384;45.186;19.958;2023-03-23T01:20:14;12.55;;;8.55;;
56481;SDS011;42384;45.186;19.958;2023-03-23T01:25:06;14.88;;;10.18;;
56481;SDS011;42384;45.186;19.958;2023-03-23T01:27:33;14.57;;;8.80;;
56481;SDS011;42384;45.186;19.958;2023-03-23T01:29:59;15.30;;;10.00;;
56481;SDS011;42384;45.186;19.958;2023-03-23T01:32:25;15.73;;;10.63;;
56481;SDS011;42384;45.186;19.958;2023-03-23T01:34:52;18.80;;;10.97;;
56481;SDS011;42384;45.186;19.958;2023-03-23T01:37:18;15.05;;;10.52;;
56481;SDS011;42384;45.186;19.958;2023-03-23T01:39:45;15.13;;;10.32;;
56481;SDS011;42384;45.186;19.958;2023-03-23T01:42:11;14.55;;;9.20;;
56481;SDS011;42384;45.186;19.958;2023-03-23T01:47:03;17.90;;;10.27;;
56481;SDS011;42384;45.186;19.958;2023-03-23T01:49:31;15.70;;;10.20;;
56481;SDS011;42384;45.186;19.958;2023-03-23T01:52:03;13.10;;;9.10;;
56481;SDS011;42384;45.186;19.958;2023-03-23T01:54:30;13.27;;;10.32;;
56481;SDS011;42384;45.186;19.958;2023-03-23T01:56:58;16.17;;;9.97;;
56481;SDS011;42384;45.186;19.958;2023-03-23T01:59:25;15.93;;;10.65;;
56481;SDS011;42384;45.186;19.958;2023-03-23T02:04:18;14.43;;;10.85;;
56481;SDS011;42384;45.186;19.958;2023-03-23T02:09:12;19.92;;;11.73;;
56481;SDS011;42384;45.186;19.958;2023-03-23T02:14:05;19.80;;;11.35;;
56481;SDS011;42384;45.186;19.958;2023-03-23T02:22:06;16.27;;;11.60;;
56481;SDS011;42384;45.186;19.958;2023-03-23T02:24:48;14.93;;;10.50;;
56481;SDS011;42384;45.186;19.958;2023-03-23T02:37:46;15.80;;;11.23;;
56481;SDS011;42384;45.186;19.958;2023-03-23T02:40:35;15.20;;;10.85;;
56481;SDS011;42384;45.186;19.958;2023-03-23T02:43:02;18.35;;;12.05;;
56481;SDS011;42384;45.186;19.958;2023-03-23T02:45:28;17.75;;;12.25;;
56481;SDS011;42384;45.186;19.958;2023-03-23T02:47:56;17.55;;;12.45;;
56481;SDS011;42384;45.186;19.958;2023-03-23T02:50:23;19.40;;;12.00;;
56481;SDS011;42384;45.186;19.958;2023-03-23T02:52:51;14.68;;;11.05;;
56481;SDS011;42384;45.186;19.958;2023-03-23T02:55:18;19.08;;;11.82;;
56481;SDS011;42384;45.186;19.958;2023-03-23T02:57:46;21.52;;;13.43;;
56481;SDS011;42384;45.186;19.958;2023-03-23T03:00:14;15.27;;;11.98;;
56481;SDS011;42384;45.186;19.958;2023-03-23T03:02:44;18.80;;;12.55;;
56481;SDS011;42384;45.186;19.958;2023-03-23T03:18:39;17.88;;;11.93;;
56481;SDS011;42384;45.186;19.958;2023-03-23T03:21:07;18.75;;;11.43;;
56481;SDS011;42384;45.186;19.958;2023-03-23T03:23:38;15.23;;;11.27;;
56481;SDS011;42384;45.186;19.958;2023-03-23T03:26:06;18.23;;;12.90;;
56481;SDS011;42384;45.186;19.958;2023-03-23T03:28:34;21.95;;;13.10;;
56481;SDS011;42384;45.186;19.958;2023-03-23T03:31:01;18.83;;;12.45;;
56481;SDS011;42384;45.186;19.958;2023-03-23T03:33:29;17.13;;;12.32;;
56481;SDS011;42384;45.186;19.958;2023-03-23T03:35:57;18.13;;;12.70;;
56481;SDS011;42384;45.186;19.958;2023-03-23T03:38:23;19.23;;;13.25;;
56481;SDS011;42384;45.186;19.958;2023-03-23T03:40:50;16.92;;;12.40;;
56481;SDS011;42384;45.186;19.958;2023-03-23T03:43:16;15.23;;;11.82;;
56481;SDS011;42384;45.186;19.958;2023-03-23T03:45:42;17.73;;;12.00;;
56481;SDS011;42384;45.186;19.958;2023-03-23T03:48:09;19.25;;;12.40;;
56481;SDS011;42384;45.186;19.958;2023-03-23T03:50:36;16.63;;;12.02;;
56481;SDS011;42384;45.186;19.958;2023-03-23T03:53:02;18.73;;;12.07;;
56481;SDS011;42384;45.186;19.958;2023-03-23T03:55:29;17.23;;;12.63;;
56481;SDS011;42384;45.186;19.958;2023-03-23T03:58:00;18.42;;;12.13;;
56481;SDS011;42384;45.186;19.958;2023-03-23T04:00:27;16.08;;;12.05;;
56481;SDS011;42384;45.186;19.958;2023-03-23T04:02:54;15.40;;;11.85;;
56481;SDS011;42384;45.186;19.958;2023-03-23T04:05:21;19.77;;;12.40;;
56481;SDS011;42384;45.186;19.958;2023-03-23T04:07:47;17.38;;;11.35;;
56481;SDS011;42384;45.186;19.958;2023-03-23T04:10:18;19.02;;;12.25;;
56481;SDS011;42384;45.186;19.958;2023-03-23T04:12:49;17.25;;;11.77;;
56481;SDS011;42384;45.186;19.958;2023-03-23T04:15:15;15.02;;;11.93;;
56481;SDS011;42384;45.186;19.958;2023-03-23T04:17:41;14.07;;;11.23;;
56481;SDS011;42384;45.186;19.958;2023-03-23T04:20:08;13.97;;;10.43;;
56481;SDS011;42384;45.186;19.958;2023-03-23T04:22:40;17.10;;;11.85;;
56481;SDS011;42384;45.186;19.958;2023-03-23T04:25:09;16.08;;;11.38;;
56481;SDS011;42384;45.186;19.958;2023-03-23T04:27:37;15.13;;;11.05;;
56481;SDS011;42384;45.186;19.958;2023-03-23T04:30:03;17.33;;;11.45;;
56481;SDS011;42384;45.186;19.958;2023-03-23T04:32:31;15.57;;;10.63;;
56481;SDS011;42384;45.186;19.958;2023-03-23T04:34:58;13.53;;;10.47;;
56481;SDS011;42384;45.186;19.958;2023-03-23T04:37:27;19.15;;;10.75;;
56481;SDS011;42384;45.186;19.958;2023-03-23T04:39:54;15.25;;;9.85;;
56481;SDS011;42384;45.186;19.958;2023-03-23T04:42:42;16.95;;;11.25;;
56481;SDS011;42384;45.186;19.958;2023-03-23T04:45:15;16.80;;;10.93;;
56481;SDS011;42384;45.186;19.958;2023-03-23T04:47:47;15.73;;;10.18;;
56481;SDS011;42384;45.186;19.958;2023-03-23T04:50:19;14.93;;;10.43;;
56481;SDS011;42384;45.186;19.958;2023-03-23T04:52:46;17.20;;;11.07;;
56481;SDS011;42384;45.186;19.958;2023-03-23T04:55:13;15.23;;;10.07;;
56481;SDS011;42384;45.186;19.958;2023-03-23T04:57:39;17.48;;;10.10;;
56481;SDS011;42384;45.186;19.958;2023-03-23T05:00:06;14.67;;;10.17;;
56481;SDS011;42384;45.186;19.958;2023-03-23T05:02:36;14.93;;;9.95;;
56481;SDS011;42384;45.186;19.958;2023-03-23T05:05:05;15.38;;;10.18;;
56481;SDS011;42384;45.186;19.958;2023-03-23T05:07:31;17.95;;;14.10;;
56481;SDS011;42384;45.186;19.958;2023-03-23T05:09:57;22.65;;;13.20;;
56481;SDS011;42384;45.186;19.958;2023-03-23T05:12:24;18.23;;;12.80;;
56481;SDS011;42384;45.186;19.958;2023-03-23T05:14:50;16.50;;;10.97;;
56481;SDS011;42384;45.186;19.958;2023-03-23T05:17:16;17.60;;;11.80;;
56481;SDS011;42384;45.186;19.958;2023-03-23T05:19:44;19.42;;;11.43;;
56481;SDS011;42384;45.186;19.958;2023-03-23T05:22:13;13.45;;;9.43;;
56481;SDS011;42384;45.186;19.958;2023-03-23T05:24:39;20.02;;;13.90;;
56481;SDS011;42384;45.186;19.958;2023-03-23T05:27:08;18.80;;;13.75;;
56481;SDS011;42384;45.186;19.958;2023-03-23T05:29:35;18.13;;;13.80;;
56481;SDS011;42384;45.186;19.958;2023-03-23T05:32:04;18.73;;;14.48;;
56481;SDS011;42384;45.186;19.958;2023-03-23T05:34:31;20.50;;;15.60;;
56481;SDS011;42384;45.186;19.958;2023-03-23T05:36:58;27.42;;;19.15;;
56481;SDS011;42384;45.186;19.958;2023-03-23T05:39:24;38.45;;;27.00;;
56481;SDS011;42384;45.186;19.958;2023-03-23T05:44:18;49.63;;;30.55;;
56481;SDS011;42384;45.186;19.958;2023-03-23T05:46:44;43.42;;;27.17;;
56481;SDS011;42384;45.186;19.958;2023-03-23T05:49:11;49.67;;;30.95;;
56481;SDS011;42384;45.186;19.958;2023-03-23T05:51:37;37.80;;;21.40;;
56481;SDS011;42384;45.186;19.958;2023-03-23T05:54:03;43.22;;;21.25;;
56481;SDS011;42384;45.186;19.958;2023-03-23T05:56:30;39.13;;;19.48;;
56481;SDS011;42384;45.186;19.958;2023-03-23T05:58:56;60.67;;;24.52;;
56481;SDS011;42384;45.186;19.958;2023-03-23T06:03:49;24.05;;;13.40;;
56481;SDS011;42384;45.186;19.958;2023-03-23T06:06:19;21.00;;;12.07;;
56481;SDS011;42384;45.186;19.958;2023-03-23T06:11:13;83.55;;;21.23;;
56481;SDS011;42384;45.186;19.958;2023-03-23T06:13:39;77.65;;;22.42;;
56481;SDS011;42384;45.186;19.958;2023-03-23T06:16:06;40.00;;;15.20;;
56481;SDS011;42384;45.186;19.958;2023-03-23T06:18:32;63.88;;;18.80;;
56481;SDS011;42384;45.186;19.958;2023-03-23T06:20:59;66.32;;;22.50;;
56481;SDS011;42384;45.186;19.958;2023-03-23T06:23:25;59.42;;;22.35;;
56481;SDS011;42384;45.186;19.958;2023-03-23T06:28:18;36.65;;;18.75;;
56481;SDS011;42384;45.186;19.958;2023-03-23T06:30:44;38.55;;;20.65;;
56481;SDS011;42384;45.186;19.958;2023-03-23T06:33:11;28.25;;;16.65;;
56481;SDS011;42384;45.186;19.958;2023-03-23T06:35:37;32.20;;;18.75;;
56481;SDS011;42384;45.186;19.958;2023-03-23T06:38:03;26.70;;;16.08;;
56481;SDS011;42384;45.186;19.958;2023-03-23T06:40:29;22.30;;;14.27;;
56481;SDS011;42384;45.186;19.958;2023-03-23T06:42:56;39.10;;;18.83;;
56481;SDS011;42384;45.186;19.958;2023-03-23T06:45:24;20.80;;;13.23;;
56481;SDS011;42384;45.186;19.958;2023-03-23T06:47:51;27.33;;;18.60;;
56481;SDS011;42384;45.186;19.958;2023-03-23T06:50:17;45.72;;;20.52;;
56481;SDS011;42384;45.186;19.958;2023-03-23T06:52:47;67.30;;;20.02;;
56481;SDS011;42384;45.186;19.958;2023-03-23T06:55:13;32.75;;;18.42;;
56481;SDS011;42384;45.186;19.958;2023-03-23T06:57:40;22.55;;;12.55;;
56481;SDS011;42384;45.186;19.958;2023-03-23T07:00:07;27.33;;;12.77;;
56481;SDS011;42384;45.186;19.958;2023-03-23T07:02:41;48.10;;;17.30;;
56481;SDS011;42384;45.186;19.958;2023-03-23T07:05:08;47.42;;;16.23;;
56481;SDS011;42384;45.186;19.958;2023-03-23T07:07:35;33.83;;;14.40;;
56481;SDS011;42384;45.186;19.958;2023-03-23T07:10:03;28.33;;;11.40;;
56481;SDS011;42384;45.186;19.958;2023-03-23T07:12:29;21.23;;;10.52;;
56481;SDS011;42384;45.186;19.958;2023-03-23T07:14:56;31.45;;;14.90;;
56481;SDS011;42384;45.186;19.958;2023-03-23T07:17:22;100.22;;;21.25;;
56481;SDS011;42384;45.186;19.958;2023-03-23T07:19:48;28.17;;;13.70;;
56481;SDS011;42384;45.186;19.958;2023-03-23T07:22:14;48.58;;;18.70;;
56481;SDS011;42384;45.186;19.958;2023-03-23T07:24:41;40.22;;;18.05;;
56481;SDS011;42384;45.186;19.958;2023-03-23T07:29:34;57.30;;;18.30;;
56481;SDS011;42384;45.186;19.958;2023-03-23T07:32:03;37.65;;;17.40;;
56481;SDS011;42384;45.186;19.958;2023-03-23T07:34:30;34.03;;;16.50;;
56481;SDS011;42384;45.186;19.958;2023-03-23T07:36:57;34.88;;;16.98;;
56481;SDS011;42384;45.186;19.958;2023-03-23T07:41:50;36.47;;;15.43;;
56481;SDS011;42384;45.186;19.958;2023-03-23T07:44:16;29.55;;;13.88;;
56481;SDS011;42384;45.186;19.958;2023-03-23T07:46:43;21.75;;;13.52;;
56481;SDS011;42384;45.186;19.958;2023-03-23T07:49:09;29.40;;;15.18;;
56481;SDS011;42384;45.186;19.958;2023-03-23T07:51:36;30.83;;;15.40;;
56481;SDS011;42384;45.186;19.958;2023-03-23T07:54:03;20.88;;;13.73;;
56481;SDS011;42384;45.186;19.958;2023-03-23T07:56:30;21.98;;;13.88;;
56481;SDS011;42384;45.186;19.958;2023-03-23T08:01:23;18.75;;;11.90;;
56481;SDS011;42384;45.186;19.958;2023-03-23T08:03:49;26.55;;;11.30;;
56481;SDS011;42384;45.186;19.958;2023-03-23T08:06:17;41.78;;;13.20;;
56481;SDS011;42384;45.186;19.958;2023-03-23T08:08:43;26.08;;;12.02;;
56481;SDS011;42384;45.186;19.958;2023-03-23T08:11:10;52.40;;;13.93;;
56481;SDS011;42384;45.186;19.958;2023-03-23T08:13:37;23.48;;;10.80;;
56481;SDS011;42384;45.186;19.958;2023-03-23T08:16:04;18.75;;;10.65;;
56481;SDS011;42384;45.186;19.958;2023-03-23T08:18:30;22.38;;;10.43;;
56481;SDS011;42384;45.186;19.958;2023-03-23T08:20:57;10.43;;;6.57;;
56481;SDS011;42384;45.186;19.958;2023-03-23T08:23:24;11.57;;;7.50;;
56481;SDS011;42384;45.186;19.958;2023-03-23T08:25:50;12.60;;;7.22;;
56481;SDS011;42384;45.186;19.958;2023-03-23T08:28:17;13.80;;;8.80;;
56481;SDS011;42384;45.186;19.958;2023-03-23T08:30:43;11.32;;;7.72;;
56481;SDS011;42384;45.186;19.958;2023-03-23T08:33:09;13.52;;;8.25;;
56481;SDS011;42384;45.186;19.958;2023-03-23T08:35:36;13.38;;;8.20;;
56481;SDS011;42384;45.186;19.958;2023-03-23T08:38:02;11.00;;;7.60;;
56481;SDS011;42384;45.186;19.958;2023-03-23T08:40:29;10.85;;;7.75;;
56481;SDS011;42384;45.186;19.958;2023-03-23T08:42:55;14.95;;;7.88;;
56481;SDS011;42384;45.186;19.958;2023-03-23T08:45:22;13.15;;;8.07;;
56481;SDS011;42384;45.186;19.958;2023-03-23T08:47:49;11.43;;;7.25;;
56481;SDS011;42384;45.186;19.958;2023-03-23T08:50:18;12.20;;;7.75;;
56481;SDS011;42384;45.186;19.958;2023-03-23T08:52:45;12.52;;;7.82;;
56481;SDS011;42384;45.186;19.958;2023-03-23T08:55:12;17.60;;;11.63;;
56481;SDS011;42384;45.186;19.958;2023-03-23T08:57:40;9.90;;;7.22;;
56481;SDS011;42384;45.186;19.958;2023-03-23T09:00:08;12.15;;;7.53;;
56481;SDS011;42384;45.186;19.958;2023-03-23T09:02:42;12.10;;;9.10;;
56481;SDS011;42384;45.186;19.958;2023-03-23T09:07:38;12.80;;;8.10;;
56481;SDS011;42384;45.186;19.958;2023-03-23T09:10:05;13.25;;;9.27;;
56481;SDS011;42384;45.186;19.958;2023-03-23T09:12:32;16.92;;;8.27;;
56481;SDS011;42384;45.186;19.958;2023-03-23T09:14:58;17.83;;;8.80;;
56481;SDS011;42384;45.186;19.958;2023-03-23T09:17:24;17.13;;;9.13;;
56481;SDS011;42384;45.186;19.958;2023-03-23T09:19:50;15.20;;;8.07;;
56481;SDS011;42384;45.186;19.958;2023-03-23T09:22:16;16.80;;;9.35;;
56481;SDS011;42384;45.186;19.958;2023-03-23T09:24:45;14.27;;;8.00;;
56481;SDS011;42384;45.186;19.958;2023-03-23T09:29:37;10.52;;;8.10;;
56481;SDS011;42384;45.186;19.958;2023-03-23T09:32:04;17.13;;;9.02;;
56481;SDS011;42384;45.186;19.958;2023-03-23T09:34:30;15.13;;;10.77;;
56481;SDS011;42384;45.186;19.958;2023-03-23T09:37:00;14.55;;;8.48;;
56481;SDS011;42384;45.186;19.958;2023-03-23T09:39:29;42.28;;;26.83;;
56481;SDS011;42384;45.186;19.958;2023-03-23T09:42:03;9.48;;;7.15;;
56481;SDS011;42384;45.186;19.958;2023-03-23T09:52:35;10.93;;;8.27;;
56481;SDS011;42384;45.186;19.958;2023-03-23T09:55:03;13.00;;;5.88;;
56481;SDS011;42384;45.186;19.958;2023-03-23T09:57:34;13.07;;;5.65;;
56481;SDS011;42384;45.186;19.958;2023-03-23T10:00:06;11.50;;;6.10;;
56481;SDS011;42384;45.186;19.958;2023-03-23T10:02:38;8.30;;;5.82;;
56481;SDS011;42384;45.186;19.958;2023-03-23T10:05:17;12.25;;;5.35;;
56481;SDS011;42384;45.186;19.958;2023-03-23T10:07:44;9.48;;;5.65;;
56481;SDS011;42384;45.186;19.958;2023-03-23T10:10:12;9.98;;;5.25;;
56481;SDS011;42384;45.186;19.958;2023-03-23T10:12:48;11.85;;;6.25;;
56481;SDS011;42384;45.186;19.958;2023-03-23T10:15:16;8.02;;;4.57;;
56481;SDS011;42384;45.186;19.958;2023-03-23T10:18:00;8.38;;;4.68;;
56481;SDS011;42384;45.186;19.958;2023-03-23T10:23:05;12.63;;;5.30;;
56481;SDS011;42384;45.186;19.958;2023-03-23T10:25:34;10.60;;;5.85;;
56481;SDS011;42384;45.186;19.958;2023-03-23T10:28:10;9.43;;;7.18;;
56481;SDS011;42384;45.186;19.958;2023-03-23T10:30:48;17.33;;;7.45;;
56481;SDS011;42384;45.186;19.958;2023-03-23T10:33:25;11.35;;;6.82;;
56481;SDS011;42384;45.186;19.958;2023-03-23T10:35:56;13.18;;;7.30;;
56481;SDS011;42384;45.186;19.958;2023-03-23T10:38:32;26.35;;;8.63;;
56481;SDS011;42384;45.186;19.958;2023-03-23T10:41:01;14.25;;;7.10;;
56481;SDS011;42384;45.186;19.958;2023-03-23T10:43:28;12.38;;;7.40;;
56481;SDS011;42384;45.186;19.958;2023-03-23T10:46:00;8.52;;;6.75;;
56481;SDS011;42384;45.186;19.958;2023-03-23T10:48:29;12.15;;;6.47;;
56481;SDS011;42384;45.186;19.958;2023-03-23T10:50:59;8.13;;;6.18;;
56481;SDS011;42384;45.186;19.958;2023-03-23T10:53:34;10.45;;;6.13;;
56481;SDS011;42384;45.186;19.958;2023-03-23T10:56:00;8.13;;;5.82;;
56481;SDS011;42384;45.186;19.958;2023-03-23T10:58:28;10.25;;;5.90;;
56481;SDS011;42384;45.186;19.958;2023-03-23T11:00:55;9.77;;;6.63;;
56481;SDS011;42384;45.186;19.958;2023-03-23T11:03:24;11.13;;;7.38;;
56481;SDS011;42384;45.186;19.958;2023-03-23T11:08:20;8.82;;;6.82;;
56481;SDS011;42384;45.186;19.958;2023-03-23T11:10:49;27.50;;;19.13;;
56481;SDS011;42384;45.186;19.958;2023-03-23T11:13:16;160.05;;;108.25;;
56481;SDS011;42384;45.186;19.958;2023-03-23T11:15:43;114.80;;;78.63;;
56481;SDS011;42384;45.186;19.958;2023-03-23T11:21:08;13.27;;;8.95;;
56481;SDS011;42384;45.186;19.958;2023-03-23T11:23:37;13.38;;;9.15;;
56481;SDS011;42384;45.186;19.958;2023-03-23T11:26:17;7.80;;;6.05;;
56481;SDS011;42384;45.186;19.958;2023-03-23T11:28:57;7.10;;;5.25;;
56481;SDS011;42384;45.186;19.958;2023-03-23T11:31:28;8.82;;;5.47;;
56481;SDS011;42384;45.186;19.958;2023-03-23T11:33:57;8.27;;;5.20;;
56481;SDS011;42384;45.186;19.958;2023-03-23T11:36:28;6.85;;;4.40;;
56481;SDS011;42384;45.186;19.958;2023-03-23T11:38:56;10.85;;;5.13;;
56481;SDS011;42384;45.186;19.958;2023-03-23T11:41:23;7.10;;;5.15;;
56481;SDS011;42384;45.186;19.958;2023-03-23T11:46:30;8.15;;;5.18;;
56481;SDS011;42384;45.186;19.958;2023-03-23T11:49:10;8.35;;;5.10;;
56481;SDS011;42384;45.186;19.958;2023-03-23T11:51:45;10.38;;;6.28;;
56481;SDS011;42384;45.186;19.958;2023-03-23T11:56:42;8.23;;;5.57;;
56481;SDS011;42384;45.186;19.958;2023-03-23T11:59:25;8.73;;;5.60;;
56481;SDS011;42384;45.186;19.958;2023-03-23T12:09:43;10.68;;;5.88;;
56481;SDS011;42384;45.186;19.958;2023-03-23T12:15:02;10.50;;;6.20;;
56481;SDS011;42384;45.186;19.958;2023-03-23T12:17:49;8.27;;;5.25;;
56481;SDS011;42384;45.186;19.958;2023-03-23T12:28:07;19.90;;;6.00;;
56481;SDS011;42384;45.186;19.958;2023-03-23T12:30:42;12.55;;;6.78;;
56481;SDS011;42384;45.186;19.958;2023-03-23T12:35:48;9.10;;;6.43;;
56481;SDS011;42384;45.186;19.958;2023-03-23T12:43:44;11.52;;;5.72;;
56481;SDS011;42384;45.186;19.958;2023-03-23T12:46:20;29.60;;;7.25;;
56481;SDS011;42384;45.186;19.958;2023-03-23T12:49:49;12.20;;;5.80;;
56481;SDS011;42384;45.186;19.958;2023-03-23T12:52:01;11.73;;;5.60;;
56481;SDS011;42384;45.186;19.958;2023-03-23T12:54:37;15.05;;;6.28;;
56481;SDS011;42384;45.186;19.958;2023-03-23T12:59:54;9.68;;;7.07;;
56481;SDS011;42384;45.186;19.958;2023-03-23T13:02:27;11.30;;;7.20;;
56481;SDS011;42384;45.186;19.958;2023-03-23T13:05:00;8.30;;;6.47;;
56481;SDS011;42384;45.186;19.958;2023-03-23T13:07:29;12.85;;;6.30;;
56481;SDS011;42384;45.186;19.958;2023-03-23T13:10:02;14.57;;;6.72;;
56481;SDS011;42384;45.186;19.958;2023-03-23T13:12:29;10.30;;;6.43;;
56481;SDS011;42384;45.186;19.958;2023-03-23T13:20:15;10.00;;;6.95;;
56481;SDS011;42384;45.186;19.958;2023-03-23T13:22:53;10.68;;;8.23;;
56481;SDS011;42384;45.186;19.958;2023-03-23T13:28:00;9.13;;;6.78;;
56481;SDS011;42384;45.186;19.958;2023-03-23T13:30:27;23.38;;;15.55;;
56481;SDS011;42384;45.186;19.958;2023-03-23T13:33:03;30.00;;;8.68;;
56481;SDS011;42384;45.186;19.958;2023-03-23T13:35:34;46.97;;;26.80;;
56481;SDS011;42384;45.186;19.958;2023-03-23T13:38:02;17.30;;;8.98;;
56481;SDS011;42384;45.186;19.958;2023-03-23T13:40:40;9.88;;;7.78;;
56481;SDS011;42384;45.186;19.958;2023-03-23T13:43:08;8.75;;;5.47;;
56481;SDS011;42384;45.186;19.958;2023-03-23T13:45:36;9.70;;;6.10;;
56481;SDS011;42384;45.186;19.958;2023-03-23T13:48:05;9.55;;;6.95;;
56481;SDS011;42384;45.186;19.958;2023-03-23T13:50:42;9.55;;;7.03;;
56481;SDS011;42384;45.186;19.958;2023-03-23T13:53:13;13.25;;;6.65;;
56481;SDS011;42384;45.186;19.958;2023-03-23T13:55:46;9.60;;;6.30;;
56481;SDS011;42384;45.186;19.958;2023-03-23T13:58:24;8.85;;;5.63;;
56481;SDS011;42384;45.186;19.958;2023-03-23T14:01:08;8.60;;;5.38;;
56481;SDS011;42384;45.186;19.958;2023-03-23T14:03:37;8.65;;;5.60;;
56481;SDS011;42384;45.186;19.958;2023-03-23T14:11:01;9.18;;;6.00;;
56481;SDS011;42384;45.186;19.958;2023-03-23T14:13:33;8.02;;;5.90;;
56481;SDS011;42384;45.186;19.958;2023-03-23T14:16:03;9.98;;;5.55;;
56481;SDS011;42384;45.186;19.958;2023-03-23T14:18:31;10.68;;;6.53;;
56481;SDS011;42384;45.186;19.958;2023-03-23T14:20:58;9.93;;;5.80;;
56481;SDS011;42384;45.186;19.958;2023-03-23T14:25:54;8.65;;;5.50;;
56481;SDS011;42384;45.186;19.958;2023-03-23T14:28:21;8.85;;;5.18;;
56481;SDS011;42384;45.186;19.958;2023-03-23T14:30:48;8.75;;;5.57;;
56481;SDS011;42384;45.186;19.958;2023-03-23T14:33:18;7.97;;;5.35;;
56481;SDS011;42384;45.186;19.958;2023-03-23T14:38:20;8.45;;;4.90;;
56481;SDS011;42384;45.186;19.958;2023-03-23T14:40:49;6.43;;;4.50;;
56481;SDS011;42384;45.186;19.958;2023-03-23T14:43:17;7.53;;;4.43;;
56481;SDS011;42384;45.186;19.958;2023-03-23T14:45:47;8.23;;;4.90;;
56481;SDS011;42384;45.186;19.958;2023-03-23T14:48:14;9.55;;;5.22;;
56481;SDS011;42384;45.186;19.958;2023-03-23T14:50:42;10.45;;;5.30;;
56481;SDS011;42384;45.186;19.958;2023-03-23T14:55:45;14.48;;;6.60;;
56481;SDS011;42384;45.186;19.958;2023-03-23T14:58:13;6.60;;;5.35;;
56481;SDS011;42384;45.186;19.958;2023-03-23T15:00:41;10.23;;;6.28;;
56481;SDS011;42384;45.186;19.958;2023-03-23T15:03:11;11.55;;;5.80;;
56481;SDS011;42384;45.186;19.958;2023-03-23T15:05:41;11.55;;;6.57;;
56481;SDS011;42384;45.186;19.958;2023-03-23T15:08:29;10.68;;;5.40;;
56481;SDS011;42384;45.186;19.958;2023-03-23T15:13:25;7.60;;;4.95;;
56481;SDS011;42384;45.186;19.958;2023-03-23T15:15:51;9.15;;;4.65;;
56481;SDS011;42384;45.186;19.958;2023-03-23T15:18:32;9.35;;;5.63;;
56481;SDS011;42384;45.186;19.958;2023-03-23T15:21:07;10.88;;;5.22;;
56481;SDS011;42384;45.186;19.958;2023-03-23T15:23:33;13.07;;;5.85;;
56481;SDS011;42384;45.186;19.958;2023-03-23T15:26:02;7.22;;;4.68;;
56481;SDS011;42384;45.186;19.958;2023-03-23T15:28:30;11.95;;;6.03;;
56481;SDS011;42384;45.186;19.958;2023-03-23T15:30:59;12.90;;;6.28;;
56481;SDS011;42384;45.186;19.958;2023-03-23T15:33:26;11.32;;;5.40;;
56481;SDS011;42384;45.186;19.958;2023-03-23T15:35:56;9.15;;;4.55;;
56481;SDS011;42384;45.186;19.958;2023-03-23T15:38:26;8.00;;;4.53;;
56481;SDS011;42384;45.186;19.958;2023-03-23T15:40:56;16.10;;;6.10;;
56481;SDS011;42384;45.186;19.958;2023-03-23T15:43:26;9.73;;;5.75;;
56481;SDS011;42384;45.186;19.958;2023-03-23T15:46:00;11.48;;;7.10;;
56481;SDS011;42384;45.186;19.958;2023-03-23T15:48:44;20.23;;;12.02;;
56481;SDS011;42384;45.186;19.958;2023-03-23T15:51:11;25.25;;;19.85;;
56481;SDS011;42384;45.186;19.958;2023-03-23T15:56:04;27.75;;;20.60;;
56481;SDS011;42384;45.186;19.958;2023-03-23T15:58:31;163.02;;;121.60;;
56481;SDS011;42384;45.186;19.958;2023-03-23T16:00:58;75.88;;;54.15;;
56481;SDS011;42384;45.186;19.958;2023-03-23T16:03:27;100.68;;;73.13;;
56481;SDS011;42384;45.186;19.958;2023-03-23T16:05:54;124.80;;;89.03;;
56481;SDS011;42384;45.186;19.958;2023-03-23T16:08:21;93.63;;;59.92;;
56481;SDS011;42384;45.186;19.958;2023-03-23T16:10:47;68.38;;;49.65;;
56481;SDS011;42384;45.186;19.958;2023-03-23T16:13:14;51.58;;;38.92;;
56481;SDS011;42384;45.186;19.958;2023-03-23T16:15:42;50.30;;;36.25;;
56481;SDS011;42384;45.186;19.958;2023-03-23T16:18:17;48.22;;;32.30;;
56481;SDS011;42384;45.186;19.958;2023-03-23T16:20:43;42.17;;;30.17;;
56481;SDS011;42384;45.186;19.958;2023-03-23T16:23:09;31.65;;;22.50;;
56481;SDS011;42384;45.186;19.958;2023-03-23T16:25:35;31.10;;;23.08;;
56481;SDS011;42384;45.186;19.958;2023-03-23T16:28:02;21.80;;;14.98;;
56481;SDS011;42384;45.186;19.958;2023-03-23T16:30:28;26.23;;;19.02;;
56481;SDS011;42384;45.186;19.958;2023-03-23T16:32:54;20.25;;;10.30;;
56481;SDS011;42384;45.186;19.958;2023-03-23T16:35:21;29.25;;;16.60;;
56481;SDS011;42384;45.186;19.958;2023-03-23T16:37:48;27.92;;;14.23;;
56481;SDS011;42384;45.186;19.958;2023-03-23T16:40:14;19.98;;;14.07;;
56481;SDS011;42384;45.186;19.958;2023-03-23T16:45:07;16.60;;;12.13;;
56481;SDS011;42384;45.186;19.958;2023-03-23T16:47:34;18.15;;;11.95;;
56481;SDS011;42384;45.186;19.958;2023-03-23T16:50:00;11.07;;;7.10;;
56481;SDS011;42384;45.186;19.958;2023-03-23T16:52:27;12.38;;;10.15;;
56481;SDS011;42384;45.186;19.958;2023-03-23T16:54:53;14.93;;;10.50;;